Flight Track Log - Related Links

Times and Time Zones

All times are in EDT time to prevent confusion due to time zone crossing. See the ASQ45T flight status page for this flight to view local times or setup timezone preferences in your user account.

Time Position Orientation Groundspeed Altitude Reporting Facility
EDT Latitude Longitude Course Direction KTS MPH feet Rate Location/Type
Tue 01:59:25 PM 36.2136 -95.8817 North 168 193 1,300  Level Kansas City Center
Tue 02:00:01 PM 36.2469 -95.8800 North 199 229 2,500 2,621 Climbing Kansas City Center
Tue 02:01:08 PM 36.2947 -95.8244 43° Northeast 247 284 5,800 2,976 Climbing Kansas City Center
Tue 02:02:08 PM 36.3247 -95.7486 64° Northeast 243 280 8,800 2,361 Climbing Kansas City Center
Tue 02:03:10 PM 36.3581 -95.6681 63° Northeast 251 289 10,600 1,805 Climbing Kansas City Center
Tue 02:04:11 PM 36.3978 -95.5700 63° Northeast 291 335 12,500 1,645 Climbing Kansas City Center
Tue 02:05:14 PM 36.4408 -95.4633 63° Northeast 331 381 14,000 1,403 Climbing Kansas City Center
Tue 02:06:15 PM 36.4856 -95.3503 64° Northeast 360 414 15,400 1,366 Climbing Kansas City Center
Tue 02:07:17 PM 36.5317 -95.2339 64° Northeast 373 429 16,800 1,355 Climbing Kansas City Center
Tue 02:08:19 PM 36.5794 -95.1153 63° Northeast 381 438 18,200 1,210 Climbing Kansas City Center
Tue 02:09:21 PM 36.6300 -94.9800 65° Northeast 388 447 19,300 1,024 Climbing Kansas City Center
Tue 02:10:22 PM 36.6803 -94.8519 64° Northeast 402 463 20,300 976 Climbing Kansas City Center
Tue 02:11:24 PM 36.7306 -94.7225 64° Northeast 411 473 21,300 1,065 Climbing Kansas City Center
Tue 02:12:26 PM 36.7914 -94.5664 64° Northeast 416 479 22,500 1,065 Climbing Kansas City Center
Tue 02:13:28 PM 36.8047 -94.4233 83° East 421 484 23,500 1,024 Climbing Kansas City Center
Tue 02:14:29 PM 36.8078 -94.2758 88° East 423 487 24,600 1,024 Climbing Kansas City Center
Tue 02:15:31 PM 36.8814 -94.1622 51° Northeast 417 480 25,600 919 Climbing Kansas City Center
Tue 02:16:33 PM 36.9739 -94.0692 39° Northeast 424 488 26,500 919 Climbing Kansas City Center
Tue 02:17:35 PM 37.0644 -93.9744 40° Northeast 424 488 27,500 1,073 Climbing Kansas City Center
Tue 02:18:36 PM 37.1664 -93.8672 40° Northeast 420 483 28,700 1,073 Climbing Kansas City Center
Tue 02:19:38 PM 37.2561 -93.7733 40° Northeast 420 483 29,700 968 Climbing Kansas City Center
Tue 02:20:40 PM 37.3464 -93.6783 40° Northeast 421 484 30,700 976 Climbing Kansas City Center
Tue 02:21:41 PM 37.4386 -93.5817 40° Northeast 426 490 31,700 976 Climbing Kansas City Center
Tue 02:22:43 PM 37.5314 -93.4836 40° Northeast 431 496 32,700 968 Climbing Kansas City Center
Tue 02:23:45 PM 37.6239 -93.3839 40° Northeast 435 501 33,700 976 Climbing Kansas City Center
Tue 02:24:46 PM 37.7178 -93.2853 40° Northeast 436 502 34,700 634 Climbing Kansas City Center
Tue 02:25:48 PM 37.8117 -93.1861 40° Northeast 436 502 35,000 145 Climbing Kansas City Center
Tue 02:26:50 PM 37.9269 -93.0606 41° Northeast 448 516 35,000  Level Kansas City Center
Tue 02:27:52 PM 38.0250 -92.9547 40° Northeast 457 526 35,000  Level Kansas City Center
Tue 02:28:53 PM 38.1211 -92.8508 40° Northeast 453 521 35,000  Level Kansas City Center
Tue 02:29:55 PM 38.2183 -92.7483 40° Northeast 450 518 35,000  Level Kansas City Center
Tue 02:30:57 PM 38.3131 -92.6428 41° Northeast 448 516 35,000  Level Kansas City Center
Tue 02:31:59 PM 38.4092 -92.5381 40° Northeast 448 516 35,000  Level Kansas City Center
Tue 02:33:01 PM 38.5056 -92.4339 40° Northeast 449 517 35,000  Level Kansas City Center
Tue 02:34:03 PM 38.5989 -92.3281 42° Northeast 447 514 35,000  Level Kansas City Center
Tue 02:35:04 PM 38.6944 -92.2222 41° Northeast 449 517 35,000  Level Kansas City Center
Tue 02:36:06 PM 38.7919 -92.1158 40° Northeast 455 524 35,000  Level Kansas City Center
Tue 02:37:08 PM 38.9081 -91.9864 41° Northeast 458 527 35,000  Level Kansas City Center
Tue 02:38:10 PM 39.0028 -91.8797 41° Northeast 453 521 35,000  Level Kansas City Center
Tue 02:39:12 PM 39.0975 -91.7753 41° Northeast 450 518 35,000  Level Kansas City Center
Tue 02:40:14 PM 39.1786 -91.6836 41° Northeast 446 513 35,000 -484 Level Kansas City Center
Tue 02:41:16 PM 39.2922 -91.5558 41° Northeast 448 516 34,000 -976 Descending Kansas City Center
Tue 02:42:17 PM 39.3872 -91.4486 41° Northeast 452 520 33,000 -488 Descending Kansas City Center
Tue 02:43:19 PM 39.4808 -91.3419 41° Northeast 451 519 33,000  Level Kansas City Center
Tue 02:44:21 PM 39.5719 -91.2367 42° Northeast 445 512 33,000  Level Kansas City Center
Tue 02:45:23 PM 39.6656 -91.1303 41° Northeast 444 511 33,000  Level Kansas City Center
Tue 02:46:25 PM 39.7664 -91.0211 40° Northeast 451 519 33,000  Level Kansas City Center
Tue 02:47:27 PM 39.8758 -90.9144 37° Northeast 463 533 33,000  Level Kansas City Center
Tue 02:48:29 PM 39.9794 -90.8100 38° Northeast 468 539 33,000  Level Kansas City Center
Tue 02:49:30 PM 40.0822 -90.7036 38° Northeast 471 542 33,000  Level Kansas City Center
Tue 02:50:32 PM 40.1861 -90.5978 38° Northeast 472 543 33,000  Level Kansas City Center
Tue 02:51:34 PM 40.2944 -90.4461 47° Northeast 474 545 33,000  Level Kansas City Center
Tue 02:52:36 PM 40.3842 -90.3214 47° Northeast 471 542 33,000  Level Kansas City Center
Tue 02:53:29 PM 40.4561 -90.2211 47° Northeast 471 542 33,000  Level Chicago Center
Tue 02:54:31 PM 40.5592 -90.0778 47° Northeast 471 542 33,000  Level Chicago Center
Tue 02:55:33 PM 40.6492 -89.9514 47° Northeast 474 545 33,000 -823 Level Chicago Center
Tue 02:56:35 PM 40.7367 -89.8236 48° Northeast 472 543 31,300 -2,032 Descending Chicago Center
Tue 02:57:37 PM 40.8267 -89.6981 47° Northeast 473 544 28,800 -2,710 Descending Chicago Center
Tue 02:58:39 PM 40.9133 -89.5758 47° Northeast 460 529 25,700 -2,323 Descending Chicago Center
Tue 02:59:41 PM 41.0136 -89.4342 47° Northeast 452 520 24,000 -1,200 Descending Chicago Center
Tue 03:00:44 PM 41.0992 -89.3108 47° Northeast 447 514 23,200 -1,008 Descending Chicago Center
Tue 03:01:46 PM 41.1797 -89.1953 47° Northeast 440 506 21,900 -1,548 Descending Chicago Center
Tue 03:02:48 PM 41.2575 -89.0808 48° Northeast 418 481 20,000 -2,613 Descending Chicago Center
Tue 03:03:50 PM 41.3333 -88.9694 48° Northeast 413 475 16,500 -3,581 Descending Chicago Center
Tue 03:04:52 PM 41.4189 -88.8439 48° Northeast 382 440 12,600 -2,661 Descending Chicago Center
Tue 03:05:54 PM 41.4889 -88.7439 47° Northeast 372 428 11,000 -726 Descending Chicago Center
Tue 03:06:56 PM 41.5356 -88.6481 57° Northeast 317 365 11,100 48 Climbing Chicago Center
Tue 03:07:58 PM 41.5733 -88.5525 62° Northeast 296 341 11,100 -145 Level Chicago Center
Tue 03:09:00 PM 41.6008 -88.4514 70° East 297 342 10,800 -581 Descending Chicago Center
Tue 03:10:02 PM 41.6186 -88.3486 77° East 287 330 9,900 -1,161 Descending Chicago Center
Tue 03:11:04 PM 41.6539 -88.2375 67° East 285 328 8,400 -1,355 Descending Chicago Center
Tue 03:12:06 PM 41.7133 -88.1906 31° Northeast 255 293 7,100 -1,200 Descending Chicago Center
Tue 03:13:09 PM 41.7533 -88.1306 48° Northeast 220 253 5,900 -1,056 Descending Chicago Center
Tue 03:14:11 PM 41.7914 -88.0919 37° Northeast 194 223 4,900 -919 Descending Chicago Center
Tue 03:15:13 PM 41.8233 -88.0528 42° Northeast 174 200 4,000 -823 Descending Chicago Center
Tue 03:16:15 PM 41.8556 -88.0147 41° Northeast 162 186 3,200 -871 Descending Chicago Center
Tue 03:17:17 PM 41.8933 -87.9708 41° Northeast 155 178 2,200 -871 Descending Chicago Center
Tue 03:18:19 PM 41.9236 -87.9339 42° Northeast 152 175 1,400 -532 Descending Chicago Center
Tue 03:19:21 PM 41.9492 -87.9033 42° Northeast 147 169 1,100 -290 Descending Chicago Center
Tue 03:21:00 PM 41.9667 -87.9000 37° Northeast  Level FlightAware Approximate

Login

Don't have an account? Register now (free) for customized features, flight alerts, and more!